Kirishima Maru No.5 — JD2506 — position and weather

sailwx.info

Track history (hours):
 
Tides and Currents Weather Stations Pressure Air Temp Water Temp Dewpoint Dewpoint Depression Visibility Wind Speed Wind Dir Waves Ship Positions

Kirishima Maru No.5

Last reported at 2017-Mar-23 19:23 UTC. Time now 2017-Mar-27 04:49 UTC.
Position N 34°05' E 134°58'.

Length 105 m; draft 5.3 m.

Type: Tanker. MMSI: 431000338.

Date/timePositionNaut miles runAvg speedWind from/ knotsBaromVisibWave heightAir tempDewpointWater temp
2017-Mar-23 19:23N 34°05' E 134°58'2714.6
2017-Mar-23 17:33N 34°32' E 135°02'6 0.2
2017-Mar-22 05:33N 34°37' E 135°01'1212.1
2017-Mar-22 04:33N 34°25' E 135°03'1513.0
2017-Mar-22 03:25N 34°11' E 134°59'  
2017-Mar-19 07:29N 34°57' E 139°44'1314.0
2017-Mar-19 06:33N 35°10' E 139°45'1312.7
2017-Mar-19 05:33N 35°22' E 139°42'9 8.8
2017-Mar-19 04:31N 35°31' E 139°46'0 0.0
2017-Mar-19 03:31N 35°31' E 139°46'0 0.0
2017-Mar-19 02:31N 35°31' E 139°46'0 0.0
2017-Mar-19 01:28N 35°31' E 139°46'0 0.0
2017-Mar-19 00:25N 35°31' E 139°46'0 0.0
2017-Mar-18 23:31N 35°31' E 139°46'1 1.1
2017-Mar-18 22:34N 35°30' E 139°45'7 7.2
2017-Mar-18 21:34N 35°23' E 139°45'0 0.1
2017-Mar-18 20:33N 35°23' E 139°45'0 0.0
2017-Mar-18 19:33N 35°23' E 139°45'0 0.1
2017-Mar-18 18:33N 35°23' E 139°45'0 0.1
2017-Mar-18 17:33N 35°23' E 139°45'0 0.0
2017-Mar-18 16:33N 35°23' E 139°45'0 0.0
2017-Mar-18 15:33N 35°23' E 139°45'0 0.0
2017-Mar-18 14:33N 35°23' E 139°45'0 0.0
2017-Mar-18 13:33N 35°23' E 139°45'0 0.1
2017-Mar-18 12:33N 35°23' E 139°45'5 5.4
2017-Mar-18 11:33N 35°18' E 139°45'1312.8
2017-Mar-18 10:34N 35°05' E 139°45'1412.7
2017-Mar-18 09:27N 34°51' E 139°48'  
Track history (hours):
 
Tides and Currents Weather Stations Pressure Air Temp Water Temp Dewpoint Dewpoint Depression Visibility Wind Speed Wind Dir Waves Ship Positions

Kirishima Maru No.5

Last reported at 2017-Mar-23 19:23 UTC. Time now 2017-Mar-27 04:49 UTC.
Position N 34°05' E 134°58'.

Length 105 m; draft 5.3 m.

Type: Tanker. MMSI: 431000338.

Date/timePositionNaut miles runAvg speedWind from/ knotsBaromVisibWave heightAir tempDewpointWater temp
2017-Mar-23 19:23N 34°05' E 134°58'2714.6
2017-Mar-23 17:33N 34°32' E 135°02'6 0.2
2017-Mar-22 05:33N 34°37' E 135°01'1212.1
2017-Mar-22 04:33N 34°25' E 135°03'1513.0
2017-Mar-22 03:25N 34°11' E 134°59'  
2017-Mar-19 07:29N 34°57' E 139°44'1314.0
2017-Mar-19 06:33N 35°10' E 139°45'1312.7
2017-Mar-19 05:33N 35°22' E 139°42'9 8.8
2017-Mar-19 04:31N 35°31' E 139°46'0 0.0
2017-Mar-19 03:31N 35°31' E 139°46'0 0.0
2017-Mar-19 02:31N 35°31' E 139°46'0 0.0
2017-Mar-19 01:28N 35°31' E 139°46'0 0.0
2017-Mar-19 00:25N 35°31' E 139°46'0 0.0
2017-Mar-18 23:31N 35°31' E 139°46'1 1.1
2017-Mar-18 22:34N 35°30' E 139°45'7 7.2
2017-Mar-18 21:34N 35°23' E 139°45'0 0.1
2017-Mar-18 20:33N 35°23' E 139°45'0 0.0
2017-Mar-18 19:33N 35°23' E 139°45'0 0.1
2017-Mar-18 18:33N 35°23' E 139°45'0 0.1
2017-Mar-18 17:33N 35°23' E 139°45'0 0.0
2017-Mar-18 16:33N 35°23' E 139°45'0 0.0
2017-Mar-18 15:33N 35°23' E 139°45'0 0.0
2017-Mar-18 14:33N 35°23' E 139°45'0 0.0
2017-Mar-18 13:33N 35°23' E 139°45'0 0.1
2017-Mar-18 12:33N 35°23' E 139°45'5 5.4
2017-Mar-18 11:33N 35°18' E 139°45'1312.8
2017-Mar-18 10:34N 35°05' E 139°45'1412.7
2017-Mar-18 09:27N 34°51' E 139°48'  

Dump ship's entire track history